sensor_id;sensor_type;location;lat;lon;timestamp;pressure;altitude;pressure_sealevel;temperature;humidity
54308;BME280;40208;39.778;2.710;2023-02-02T00:02:35;102718.19;;;4.31;100.00
54308;BME280;40208;39.778;2.710;2023-02-02T00:05:20;102707.63;;;4.28;100.00
54308;BME280;40208;39.778;2.710;2023-02-02T00:08:05;102724.28;;;4.29;100.00
54308;BME280;40208;39.778;2.710;2023-02-02T00:10:49;102720.88;;;4.39;100.00
54308;BME280;40208;39.778;2.710;2023-02-02T00:13:34;102719.09;;;4.36;100.00
54308;BME280;40208;39.778;2.710;2023-02-02T00:21:54;102709.19;;;4.11;100.00
54308;BME280;40208;39.778;2.710;2023-02-02T00:24:38;102709.03;;;4.00;100.00
54308;BME280;40208;39.778;2.710;2023-02-02T00:27:23;102711.69;;;4.01;100.00
54308;BME280;40208;39.778;2.710;2023-02-02T00:30:08;102713.50;;;4.07;100.00
54308;BME280;40208;39.778;2.710;2023-02-02T00:32:52;102708.94;;;3.94;100.00
54308;BME280;40208;39.778;2.710;2023-02-02T00:35:38;102705.50;;;3.96;100.00
54308;BME280;40208;39.778;2.710;2023-02-02T00:38:23;102705.44;;;3.93;100.00
54308;BME280;40208;39.778;2.710;2023-02-02T00:41:08;102705.44;;;3.93;100.00
54308;BME280;40208;39.778;2.710;2023-02-02T00:43:52;102702.81;;;3.92;100.00
54308;BME280;40208;39.778;2.710;2023-02-02T00:46:55;102700.88;;;3.78;100.00
54308;BME280;40208;39.778;2.710;2023-02-02T00:49:39;102694.81;;;3.82;100.00
54308;BME280;40208;39.778;2.710;2023-02-02T00:52:24;102696.50;;;3.79;100.00
54308;BME280;40208;39.778;2.710;2023-02-02T00:55:09;102685.09;;;3.78;100.00
54308;BME280;40208;39.778;2.710;2023-02-02T00:57:54;102690.34;;;3.78;100.00
54308;BME280;40208;39.778;2.710;2023-02-02T01:00:39;102683.25;;;3.71;100.00
54308;BME280;40208;39.778;2.710;2023-02-02T01:03:23;102690.28;;;3.74;100.00
54308;BME280;40208;39.778;2.710;2023-02-02T01:06:07;102684.97;;;3.69;100.00
54308;BME280;40208;39.778;2.710;2023-02-02T01:08:52;102676.28;;;3.73;100.00
54308;BME280;40208;39.778;2.710;2023-02-02T01:11:37;102685.75;;;3.62;100.00
54308;BME280;40208;39.778;2.710;2023-02-02T01:14:22;102675.16;;;3.54;100.00
54308;BME280;40208;39.778;2.710;2023-02-02T01:17:06;102674.22;;;3.51;100.00
54308;BME280;40208;39.778;2.710;2023-02-02T01:19:51;102676.91;;;3.55;100.00
54308;BME280;40208;39.778;2.710;2023-02-02T01:22:36;102679.56;;;3.57;100.00
54308;BME280;40208;39.778;2.710;2023-02-02T01:25:21;102683.94;;;3.56;100.00
54308;BME280;40208;39.778;2.710;2023-02-02T01:28:06;102684.00;;;3.63;100.00
54308;BME280;40208;39.778;2.710;2023-02-02T01:30:51;102679.69;;;3.66;100.00
54308;BME280;40208;39.778;2.710;2023-02-02T01:33:35;102676.16;;;3.64;100.00
54308;BME280;40208;39.778;2.710;2023-02-02T01:36:21;102676.97;;;3.58;100.00
54308;BME280;40208;39.778;2.710;2023-02-02T01:39:06;102675.00;;;3.45;100.00
54308;BME280;40208;39.778;2.710;2023-02-02T01:41:51;102668.91;;;3.48;100.00
54308;BME280;40208;39.778;2.710;2023-02-02T01:47:42;102663.47;;;3.32;100.00
54308;BME280;40208;39.778;2.710;2023-02-02T01:50:30;102660.84;;;3.34;100.00
54308;BME280;40208;39.778;2.710;2023-02-02T01:53:16;102661.78;;;3.37;100.00
54308;BME280;40208;39.778;2.710;2023-02-02T01:56:04;102664.47;;;3.44;100.00
54308;BME280;40208;39.778;2.710;2023-02-02T01:58:50;102657.38;;;3.35;100.00
54308;BME280;40208;39.778;2.710;2023-02-02T02:01:35;102648.56;;;3.31;100.00
54308;BME280;40208;39.778;2.710;2023-02-02T02:04:20;102654.72;;;3.33;100.00
54308;BME280;40208;39.778;2.710;2023-02-02T02:07:06;102659.84;;;3.26;100.00
54308;BME280;40208;39.778;2.710;2023-02-02T02:09:51;102660.81;;;3.31;100.00
54308;BME280;40208;39.778;2.710;2023-02-02T02:12:35;102646.72;;;3.27;100.00
54308;BME280;40208;39.778;2.710;2023-02-02T02:15:20;102654.59;;;3.27;100.00
54308;BME280;40208;39.778;2.710;2023-02-02T02:18:34;102647.50;;;3.20;100.00
54308;BME280;40208;39.778;2.710;2023-02-02T02:24:37;102637.78;;;3.13;100.00
54308;BME280;40208;39.778;2.710;2023-02-02T02:39:22;102630.75;;;3.10;100.00
54308;BME280;40208;39.778;2.710;2023-02-02T02:42:11;102624.50;;;3.04;100.00
54308;BME280;40208;39.778;2.710;2023-02-02T02:44:56;102621.91;;;3.05;100.00
54308;BME280;40208;39.778;2.710;2023-02-02T02:47:43;102621.03;;;3.05;100.00
54308;BME280;40208;39.778;2.710;2023-02-02T02:50:28;102619.34;;;3.07;100.00
54308;BME280;40208;39.778;2.710;2023-02-02T02:53:14;102624.56;;;3.07;100.00
54308;BME280;40208;39.778;2.710;2023-02-02T02:58:53;102619.41;;;3.11;100.00
54308;BME280;40208;39.778;2.710;2023-02-02T03:02:09;102622.78;;;3.04;100.00
54308;BME280;40208;39.778;2.710;2023-02-02T03:07:52;102615.63;;;2.92;100.00
54308;BME280;40208;39.778;2.710;2023-02-02T03:10:39;102617.28;;;2.89;100.00
54308;BME280;40208;39.778;2.710;2023-02-02T03:13:24;102608.50;;;2.87;100.00
54308;BME280;40208;39.778;2.710;2023-02-02T03:16:10;102610.22;;;2.83;100.00
54308;BME280;40208;39.778;2.710;2023-02-02T03:18:54;102613.00;;;2.92;100.00
54308;BME280;40208;39.778;2.710;2023-02-02T03:21:40;102617.47;;;3.00;100.00
54308;BME280;40208;39.778;2.710;2023-02-02T03:24:24;102612.06;;;2.90;100.00
54308;BME280;40208;39.778;2.710;2023-02-02T03:27:09;102619.06;;;2.91;100.00
54308;BME280;40208;39.778;2.710;2023-02-02T03:29:54;102620.84;;;2.94;100.00
54308;BME280;40208;39.778;2.710;2023-02-02T03:32:40;102611.09;;;2.84;100.00
54308;BME280;40208;39.778;2.710;2023-02-02T03:35:25;102615.41;;;2.82;100.00
54308;BME280;40208;39.778;2.710;2023-02-02T03:38:09;102610.94;;;2.73;100.00
54308;BME280;40208;39.778;2.710;2023-02-02T03:40:55;102609.25;;;2.78;100.00
54308;BME280;40208;39.778;2.710;2023-02-02T03:43:40;102608.38;;;2.79;100.00
54308;BME280;40208;39.778;2.710;2023-02-02T03:46:24;102611.78;;;2.72;100.00
54308;BME280;40208;39.778;2.710;2023-02-02T03:49:09;102615.19;;;2.66;100.00
54308;BME280;40208;39.778;2.710;2023-02-02T03:51:54;102616.97;;;2.69;100.00
54308;BME280;40208;39.778;2.710;2023-02-02T03:54:38;102616.94;;;2.66;100.00
54308;BME280;40208;39.778;2.710;2023-02-02T03:57:23;102609.81;;;2.60;100.00
54308;BME280;40208;39.778;2.710;2023-02-02T04:00:07;102614.16;;;2.58;100.00
54308;BME280;40208;39.778;2.710;2023-02-02T04:02:52;102617.69;;;2.60;100.00
54308;BME280;40208;39.778;2.710;2023-02-02T04:05:36;102610.66;;;2.58;100.00
54308;BME280;40208;39.778;2.710;2023-02-02T04:08:21;102603.66;;;2.57;100.00
54308;BME280;40208;39.778;2.710;2023-02-02T04:11:09;102611.53;;;2.58;100.00
54308;BME280;40208;39.778;2.710;2023-02-02T04:13:54;102604.66;;;2.65;100.00
54308;BME280;40208;39.778;2.710;2023-02-02T04:16:39;102612.53;;;2.65;100.00
54308;BME280;40208;39.778;2.710;2023-02-02T04:19:23;102612.44;;;2.60;100.00
54308;BME280;40208;39.778;2.710;2023-02-02T04:22:08;102614.06;;;2.53;100.00
54308;BME280;40208;39.778;2.710;2023-02-02T04:24:53;102610.53;;;2.51;100.00
54308;BME280;40208;39.778;2.710;2023-02-02T04:27:37;102615.69;;;2.45;100.00
54308;BME280;40208;39.778;2.710;2023-02-02T04:30:21;102621.84;;;2.47;100.00
54308;BME280;40208;39.778;2.710;2023-02-02T04:33:06;102614.81;;;2.45;100.00
54308;BME280;40208;39.778;2.710;2023-02-02T04:35:51;102619.09;;;2.40;100.00
54308;BME280;40208;39.778;2.710;2023-02-02T04:38:35;102617.34;;;2.40;100.00
54308;BME280;40208;39.778;2.710;2023-02-02T04:41:21;102615.50;;;2.36;100.00
54308;BME280;40208;39.778;2.710;2023-02-02T04:44:09;102617.34;;;2.40;100.00
54308;BME280;40208;39.778;2.710;2023-02-02T04:46:55;102617.22;;;2.34;100.00
54308;BME280;40208;39.778;2.710;2023-02-02T04:49:39;102619.78;;;2.32;100.00
54308;BME280;40208;39.778;2.710;2023-02-02T04:52:24;102619.00;;;2.37;100.00
54308;BME280;40208;39.778;2.710;2023-02-02T04:55:08;102621.72;;;2.41;100.00
54308;BME280;40208;39.778;2.710;2023-02-02T04:57:53;102626.00;;;2.36;100.00
54308;BME280;40208;39.778;2.710;2023-02-02T05:00:38;102627.78;;;2.39;100.00
54308;BME280;40208;39.778;2.710;2023-02-02T05:03:23;102631.28;;;2.38;100.00
54308;BME280;40208;39.778;2.710;2023-02-02T05:06:07;102626.13;;;2.42;100.00
54308;BME280;40208;39.778;2.710;2023-02-02T05:08:52;102641.66;;;2.33;100.00
54308;BME280;40208;39.778;2.710;2023-02-02T05:11:37;102631.28;;;2.38;100.00
54308;BME280;40208;39.778;2.710;2023-02-02T05:14:24;102628.44;;;2.27;100.00
54308;BME280;40208;39.778;2.710;2023-02-02T05:17:08;102628.47;;;2.28;100.00
54308;BME280;40208;39.778;2.710;2023-02-02T05:19:53;102620.75;;;2.36;100.00
54308;BME280;40208;39.778;2.710;2023-02-02T05:22:38;102625.81;;;2.27;100.00
54308;BME280;40208;39.778;2.710;2023-02-02T05:25:22;102623.09;;;2.22;100.00
54308;BME280;40208;39.778;2.710;2023-02-02T05:28:07;102628.25;;;2.16;100.00
54308;BME280;40208;39.778;2.710;2023-02-02T05:30:51;102632.59;;;2.16;100.00
54308;BME280;40208;39.778;2.710;2023-02-02T05:33:36;102629.13;;;2.18;100.00
54308;BME280;40208;39.778;2.710;2023-02-02T05:36:21;102630.03;;;2.19;100.00
54308;BME280;40208;39.778;2.710;2023-02-02T05:39:06;102639.75;;;2.24;100.00
54308;BME280;40208;39.778;2.710;2023-02-02T05:41:50;102640.56;;;2.22;100.00
54308;BME280;40208;39.778;2.710;2023-02-02T05:44:35;102644.75;;;2.13;100.00
54308;BME280;40208;39.778;2.710;2023-02-02T05:47:19;102644.72;;;2.10;100.00
54308;BME280;40208;39.778;2.710;2023-02-02T05:50:05;102644.66;;;2.07;100.00
54308;BME280;40208;39.778;2.710;2023-02-02T05:52:49;102639.38;;;2.06;100.00
54308;BME280;40208;39.778;2.710;2023-02-02T05:55:35;102642.81;;;2.02;100.00
54308;BME280;40208;39.778;2.710;2023-02-02T05:58:19;102634.09;;;2.03;100.00
54308;BME280;40208;39.778;2.710;2023-02-02T06:01:03;102643.69;;;2.02;100.00
54308;BME280;40208;39.778;2.710;2023-02-02T06:03:48;102640.25;;;2.06;100.00
54308;BME280;40208;39.778;2.710;2023-02-02T06:06:33;102641.94;;;2.03;100.00
54308;BME280;40208;39.778;2.710;2023-02-02T06:09:19;102648.94;;;2.02;100.00
54308;BME280;40208;39.778;2.710;2023-02-02T06:12:03;102645.25;;;1.94;100.00
54308;BME280;40208;39.778;2.710;2023-02-02T06:14:48;102646.13;;;1.93;100.00
54308;BME280;40208;39.778;2.710;2023-02-02T06:17:33;102647.78;;;1.89;100.00
54308;BME280;40208;39.778;2.710;2023-02-02T06:20:17;102650.38;;;1.88;100.00
54308;BME280;40208;39.778;2.710;2023-02-02T06:23:02;102650.38;;;1.88;100.00
54308;BME280;40208;39.778;2.710;2023-02-02T06:25:47;102651.41;;;1.96;100.00
54308;BME280;40208;39.778;2.710;2023-02-02T06:28:31;102650.44;;;1.91;100.00
54308;BME280;40208;39.778;2.710;2023-02-02T06:31:16;102660.84;;;1.89;100.00
54308;BME280;40208;39.778;2.710;2023-02-02T06:34:02;102660.03;;;1.92;100.00
54308;BME280;40208;39.778;2.710;2023-02-02T06:36:47;102660.84;;;1.88;100.00
54308;BME280;40208;39.778;2.710;2023-02-02T06:39:32;102664.38;;;1.90;100.00
54308;BME280;40208;39.778;2.710;2023-02-02T06:42:16;102676.56;;;1.88;100.00
54308;BME280;40208;39.778;2.710;2023-02-02T06:45:01;102669.63;;;1.90;100.00
54308;BME280;40208;39.778;2.710;2023-02-02T06:47:46;102676.47;;;1.85;100.00
54308;BME280;40208;39.778;2.710;2023-02-02T06:50:30;102679.19;;;1.88;100.00
54308;BME280;40208;39.778;2.710;2023-02-02T06:53:15;102691.44;;;1.90;100.00
54308;BME280;40208;39.778;2.710;2023-02-02T06:56:05;102691.34;;;1.87;100.00
54308;BME280;40208;39.778;2.710;2023-02-02T06:58:50;102687.88;;;1.87;100.00
54308;BME280;40208;39.778;2.710;2023-02-02T07:01:34;102692.28;;;1.88;100.00
54308;BME280;40208;39.778;2.710;2023-02-02T07:04:19;102695.03;;;1.96;100.00
54308;BME280;40208;39.778;2.710;2023-02-02T07:07:04;102695.97;;;1.99;100.00
54308;BME280;40208;39.778;2.710;2023-02-02T07:09:49;102702.03;;;1.95;100.00
54308;BME280;40208;39.778;2.710;2023-02-02T07:12:33;102696.84;;;1.98;100.00
54308;BME280;40208;39.778;2.710;2023-02-02T07:15:17;102700.38;;;2.00;100.00
54308;BME280;40208;39.778;2.710;2023-02-02T07:18:03;102697.56;;;1.91;100.00
54308;BME280;40208;39.778;2.710;2023-02-02T07:20:47;102701.94;;;1.92;100.00
54308;BME280;40208;39.778;2.710;2023-02-02T07:23:32;102710.59;;;1.89;100.00
54308;BME280;40208;39.778;2.710;2023-02-02T07:26:17;102704.53;;;1.90;100.00
54308;BME280;40208;39.778;2.710;2023-02-02T07:29:03;102708.09;;;1.94;100.00
54308;BME280;40208;39.778;2.710;2023-02-02T07:31:47;102705.50;;;1.96;100.00
54308;BME280;40208;39.778;2.710;2023-02-02T07:34:31;102716.00;;;1.96;100.00
54308;BME280;40208;39.778;2.710;2023-02-02T07:37:16;102721.28;;;1.99;100.00
54308;BME280;40208;39.778;2.710;2023-02-02T07:40:00;102716.16;;;2.03;100.00
54308;BME280;40208;39.778;2.710;2023-02-02T07:42:46;102726.72;;;2.08;100.00
54308;BME280;40208;39.778;2.710;2023-02-02T07:45:30;102732.09;;;2.14;100.00
54308;BME280;40208;39.778;2.710;2023-02-02T07:48:15;102731.28;;;2.17;100.00
54308;BME280;40208;39.778;2.710;2023-02-02T07:51:00;102726.97;;;2.19;100.00
54308;BME280;40208;39.778;2.710;2023-02-02T07:53:45;102734.88;;;2.22;100.00
54308;BME280;40208;39.778;2.710;2023-02-02T07:56:30;102739.34;;;2.27;100.00
54308;BME280;40208;39.778;2.710;2023-02-02T07:59:15;102741.16;;;2.30;100.00
54308;BME280;40208;39.778;2.710;2023-02-02T08:01:59;102742.94;;;2.32;100.00
54308;BME280;40208;39.778;2.710;2023-02-02T08:04:43;102745.75;;;2.40;100.00
54308;BME280;40208;39.778;2.710;2023-02-02T08:07:30;102748.47;;;2.45;100.00
54308;BME280;40208;39.778;2.710;2023-02-02T08:10:17;102746.91;;;2.56;100.00
54308;BME280;40208;39.778;2.710;2023-02-02T08:13:01;102752.16;;;2.56;100.00
54308;BME280;40208;39.778;2.710;2023-02-02T08:15:46;102750.44;;;2.57;100.00
54308;BME280;40208;39.778;2.710;2023-02-02T08:18:31;102748.78;;;2.62;100.00
54308;BME280;40208;39.778;2.710;2023-02-02T08:21:16;102747.25;;;2.73;100.00
54308;BME280;40208;39.778;2.710;2023-02-02T08:24:02;102746.78;;;2.95;100.00
54308;BME280;40208;39.778;2.710;2023-02-02T08:26:48;102752.50;;;3.22;100.00
54308;BME280;40208;39.778;2.710;2023-02-02T08:29:33;102750.25;;;3.46;100.00
54308;BME280;40208;39.778;2.710;2023-02-02T08:32:17;102748.84;;;3.67;100.00
54308;BME280;40208;39.778;2.710;2023-02-02T08:35:02;102744.63;;;3.78;100.00
54308;BME280;40208;39.778;2.710;2023-02-02T08:37:47;102755.25;;;3.86;100.00
54308;BME280;40208;39.778;2.710;2023-02-02T08:40:32;102761.47;;;3.94;100.00
54308;BME280;40208;39.778;2.710;2023-02-02T08:43:16;102758.94;;;4.00;100.00
54308;BME280;40208;39.778;2.710;2023-02-02T08:46:01;102758.13;;;4.06;100.00
54308;BME280;40208;39.778;2.710;2023-02-02T08:48:47;102770.41;;;4.05;100.00
54308;BME280;40208;39.778;2.710;2023-02-02T08:51:32;102763.41;;;4.04;100.00
54308;BME280;40208;39.778;2.710;2023-02-02T08:54:16;102766.94;;;4.08;100.00
54308;BME280;40208;39.778;2.710;2023-02-02T08:57:01;102761.75;;;4.11;100.00
54308;BME280;40208;39.778;2.710;2023-02-02T08:59:45;102767.06;;;4.15;100.00
54308;BME280;40208;39.778;2.710;2023-02-02T09:02:30;102762.75;;;4.20;100.00
54308;BME280;40208;39.778;2.710;2023-02-02T09:05:14;102765.44;;;4.27;100.00
54308;BME280;40208;39.778;2.710;2023-02-02T09:07:59;102766.38;;;4.30;100.00
54308;BME280;40208;39.778;2.710;2023-02-02T09:10:43;102762.03;;;4.35;100.00
54308;BME280;40208;39.778;2.710;2023-02-02T09:13:28;102766.47;;;4.38;100.00
54308;BME280;40208;39.778;2.710;2023-02-02T09:16:13;102769.97;;;4.37;100.00
54308;BME280;40208;39.778;2.710;2023-02-02T09:18:58;102774.38;;;4.39;100.00
54308;BME280;40208;39.778;2.710;2023-02-02T09:21:42;102784.91;;;4.42;100.00
54308;BME280;40208;39.778;2.710;2023-02-02T09:24:27;102777.13;;;4.49;100.00
54308;BME280;40208;39.778;2.710;2023-02-02T09:27:11;102779.81;;;4.53;100.00
54308;BME280;40208;39.778;2.710;2023-02-02T09:29:56;102779.81;;;4.58;100.00
54308;BME280;40208;39.778;2.710;2023-02-02T09:32:40;102785.19;;;4.64;100.00
54308;BME280;40208;39.778;2.710;2023-02-02T09:35:25;102782.66;;;4.73;100.00
54308;BME280;40208;39.778;2.710;2023-02-02T09:38:10;102782.84;;;4.93;100.00
54308;BME280;40208;39.778;2.710;2023-02-02T09:40:54;102781.31;;;5.14;100.00
54308;BME280;40208;39.778;2.710;2023-02-02T09:46:39;102794.91;;;5.61;100.00
54308;BME280;40208;39.778;2.710;2023-02-02T09:49:34;102800.34;;;5.86;100.00
54308;BME280;40208;39.778;2.710;2023-02-02T09:55:39;102795.47;;;6.46;100.00
54308;BME280;40208;39.778;2.710;2023-02-02T10:04:04;102793.91;;;7.29;100.00
54308;BME280;40208;39.778;2.710;2023-02-02T10:06:55;102793.91;;;7.60;100.00
54308;BME280;40208;39.778;2.710;2023-02-02T10:09:47;102791.22;;;7.92;100.00
54308;BME280;40208;39.778;2.710;2023-02-02T10:12:51;102789.38;;;8.28;100.00
54308;BME280;40208;39.778;2.710;2023-02-02T10:15:38;102785.75;;;8.63;100.00
54308;BME280;40208;39.778;2.710;2023-02-02T10:18:31;102775.00;;;8.89;100.00
54308;BME280;40208;39.778;2.710;2023-02-02T10:24:21;102779.84;;;9.52;100.00
54308;BME280;40208;39.778;2.710;2023-02-02T10:27:16;102780.50;;;9.79;100.00
54308;BME280;40208;39.778;2.710;2023-02-02T10:30:20;102773.13;;;10.05;100.00
54308;BME280;40208;39.778;2.710;2023-02-02T10:33:11;102775.53;;;10.31;100.00
54308;BME280;40208;39.778;2.710;2023-02-02T10:36:05;102772.50;;;10.60;100.00
54308;BME280;40208;39.778;2.710;2023-02-02T10:39:02;102777.47;;;10.85;100.00
54308;BME280;40208;39.778;2.710;2023-02-02T10:41:58;102762.94;;;11.09;100.00
54308;BME280;40208;39.778;2.710;2023-02-02T10:44:53;102755.47;;;11.34;100.00
54308;BME280;40208;39.778;2.710;2023-02-02T10:47:38;102759.44;;;11.60;100.00
54308;BME280;40208;39.778;2.710;2023-02-02T10:50:23;102753.69;;;11.84;100.00
54308;BME280;40208;39.778;2.710;2023-02-02T10:53:09;102745.25;;;12.09;100.00
54308;BME280;40208;39.778;2.710;2023-02-02T10:56:03;102742.22;;;12.27;100.00
54308;BME280;40208;39.778;2.710;2023-02-02T11:01:46;102731.59;;;12.66;100.00
54308;BME280;40208;39.778;2.710;2023-02-02T11:04:31;102726.72;;;12.87;100.00
54308;BME280;40208;39.778;2.710;2023-02-02T11:07:35;102721.75;;;13.07;100.00
54308;BME280;40208;39.778;2.710;2023-02-02T11:10:20;102725.78;;;13.24;100.00
54308;BME280;40208;39.778;2.710;2023-02-02T11:13:04;102719.88;;;13.48;100.00
54308;BME280;40208;39.778;2.710;2023-02-02T11:16:07;102716.91;;;13.59;100.00
54308;BME280;40208;39.778;2.710;2023-02-02T11:18:55;102711.31;;;13.70;100.00
54308;BME280;40208;39.778;2.710;2023-02-02T11:21:40;102705.63;;;13.82;100.00
54308;BME280;40208;39.778;2.710;2023-02-02T11:27:21;102700.94;;;14.21;100.00
54308;BME280;40208;39.778;2.710;2023-02-02T11:36:18;102676.31;;;14.70;100.00
54308;BME280;40208;39.778;2.710;2023-02-02T11:39:19;102673.63;;;14.71;100.00
54308;BME280;40208;39.778;2.710;2023-02-02T11:42:10;102664.38;;;14.81;100.00
54308;BME280;40208;39.778;2.710;2023-02-02T11:44:56;102666.31;;;15.03;100.00
54308;BME280;40208;39.778;2.710;2023-02-02T11:47:42;102660.28;;;15.23;100.00
54308;BME280;40208;39.778;2.710;2023-02-02T11:50:27;102667.94;;;15.34;100.00
54308;BME280;40208;39.778;2.710;2023-02-02T11:53:20;102662.16;;;15.46;100.00
54308;BME280;40208;39.778;2.710;2023-02-02T11:56:06;102658.44;;;15.50;100.00
54308;BME280;40208;39.778;2.710;2023-02-02T11:58:53;102655.94;;;15.45;100.00
54308;BME280;40208;39.778;2.710;2023-02-02T12:01:42;102657.59;;;15.50;100.00
54308;BME280;40208;39.778;2.710;2023-02-02T12:04:27;102667.19;;;15.55;100.00
54308;BME280;40208;39.778;2.710;2023-02-02T12:07:25;102649.28;;;15.57;100.00
54308;BME280;40208;39.778;2.710;2023-02-02T12:10:21;102657.13;;;15.62;100.00
54308;BME280;40208;39.778;2.710;2023-02-02T12:13:16;102648.50;;;15.79;100.00
54308;BME280;40208;39.778;2.710;2023-02-02T12:28:01;102625.59;;;15.95;100.00
54308;BME280;40208;39.778;2.710;2023-02-02T12:36:28;102613.69;;;16.02;100.00
54308;BME280;40208;39.778;2.710;2023-02-02T12:48:09;102603.56;;;15.87;100.00
54308;BME280;40208;39.778;2.710;2023-02-02T12:54:01;102602.06;;;15.80;100.00
54308;BME280;40208;39.778;2.710;2023-02-02T13:17:24;102584.22;;;15.80;100.00
54308;BME280;40208;39.778;2.710;2023-02-02T13:20:21;102586.97;;;15.77;100.00
54308;BME280;40208;39.778;2.710;2023-02-02T13:23:11;102585.25;;;15.76;100.00
54308;BME280;40208;39.778;2.710;2023-02-02T13:26:00;102587.25;;;15.69;100.00
54308;BME280;40208;39.778;2.710;2023-02-02T13:31:33;102578.13;;;15.75;100.00
54308;BME280;40208;39.778;2.710;2023-02-02T13:34:22;102577.41;;;15.72;100.00
54308;BME280;40208;39.778;2.710;2023-02-02T13:39:59;102575.19;;;15.58;100.00
54308;BME280;40208;39.778;2.710;2023-02-02T13:56:49;102571.53;;;15.60;100.00
54308;BME280;40208;39.778;2.710;2023-02-02T14:08:20;102575.13;;;15.36;100.00
54308;BME280;40208;39.778;2.710;2023-02-02T14:11:05;102574.84;;;15.43;100.00
54308;BME280;40208;39.778;2.710;2023-02-02T14:13:52;102580.03;;;15.48;100.00
54308;BME280;40208;39.778;2.710;2023-02-02T14:16:58;102574.31;;;15.34;100.00
54308;BME280;40208;39.778;2.710;2023-02-02T14:22:57;102572.00;;;15.23;100.00
54308;BME280;40208;39.778;2.710;2023-02-02T14:25:48;102570.09;;;15.26;100.00
54308;BME280;40208;39.778;2.710;2023-02-02T14:28:54;102565.59;;;15.29;100.00
54308;BME280;40208;39.778;2.710;2023-02-02T14:31:58;102579.03;;;15.25;100.00
54308;BME280;40208;39.778;2.710;2023-02-02T14:34:43;102582.66;;;15.24;100.00
54308;BME280;40208;39.778;2.710;2023-02-02T14:37:33;102581.84;;;15.22;100.00
54308;BME280;40208;39.778;2.710;2023-02-02T14:43:29;102577.88;;;15.09;100.00
54308;BME280;40208;39.778;2.710;2023-02-02T14:46:31;102569.78;;;15.11;100.00
54308;BME280;40208;39.778;2.710;2023-02-02T14:49:20;102579.72;;;15.07;100.00
54308;BME280;40208;39.778;2.710;2023-02-02T14:52:15;102578.75;;;15.10;100.00
54308;BME280;40208;39.778;2.710;2023-02-02T14:55:04;102584.63;;;15.19;100.00
54308;BME280;40208;39.778;2.710;2023-02-02T14:57:59;102576.53;;;15.21;100.00
54308;BME280;40208;39.778;2.710;2023-02-02T15:00:44;102585.50;;;15.20;100.00
54308;BME280;40208;39.778;2.710;2023-02-02T15:06:36;102588.44;;;15.12;100.00
54308;BME280;40208;39.778;2.710;2023-02-02T15:17:58;102584.41;;;15.00;100.00
54308;BME280;40208;39.778;2.710;2023-02-02T15:20:46;102588.16;;;14.95;100.00
54308;BME280;40208;39.778;2.710;2023-02-02T15:23:33;102582.88;;;14.93;100.00
54308;BME280;40208;39.778;2.710;2023-02-02T15:26:23;102573.88;;;14.96;100.00
54308;BME280;40208;39.778;2.710;2023-02-02T15:29:20;102587.44;;;14.90;100.00
54308;BME280;40208;39.778;2.710;2023-02-02T15:32:05;102587.56;;;14.87;100.00
54308;BME280;40208;39.778;2.710;2023-02-02T15:34:58;102579.69;;;14.82;100.00
54308;BME280;40208;39.778;2.710;2023-02-02T15:37:45;102582.38;;;14.82;100.00
54308;BME280;40208;39.778;2.710;2023-02-02T15:40:31;102582.38;;;14.82;100.00
54308;BME280;40208;39.778;2.710;2023-02-02T15:43:19;102584.22;;;14.80;100.00
54308;BME280;40208;39.778;2.710;2023-02-02T15:46:04;102584.13;;;14.83;100.00
54308;BME280;40208;39.778;2.710;2023-02-02T15:51:54;102578.81;;;14.81;100.00
54308;BME280;40208;39.778;2.710;2023-02-02T15:54:50;102578.16;;;14.75;100.00
54308;BME280;40208;39.778;2.710;2023-02-02T15:57:36;102584.59;;;14.69;100.00
54308;BME280;40208;39.778;2.710;2023-02-02T16:00:22;102585.72;;;14.62;100.00
54308;BME280;40208;39.778;2.710;2023-02-02T16:05:53;102587.97;;;14.46;100.00
54308;BME280;40208;39.778;2.710;2023-02-02T16:08:38;102592.53;;;14.42;100.00
54308;BME280;40208;39.778;2.710;2023-02-02T16:11:24;102588.63;;;14.26;100.00
54308;BME280;40208;39.778;2.710;2023-02-02T16:14:13;102589.88;;;14.14;100.00
54308;BME280;40208;39.778;2.710;2023-02-02T16:17:12;102598.22;;;14.04;100.00
54308;BME280;40208;39.778;2.710;2023-02-02T16:20:04;102599.31;;;13.96;100.00
54308;BME280;40208;39.778;2.710;2023-02-02T16:22:52;102603.97;;;13.90;100.00
54308;BME280;40208;39.778;2.710;2023-02-02T16:25:40;102603.38;;;13.80;100.00
54308;BME280;40208;39.778;2.710;2023-02-02T16:28:27;102614.31;;;13.71;100.00
54308;BME280;40208;39.778;2.710;2023-02-02T16:31:12;102603.00;;;13.63;100.00
54308;BME280;40208;39.778;2.710;2023-02-02T16:33:57;102611.22;;;13.55;100.00
54308;BME280;40208;39.778;2.710;2023-02-02T16:36:43;102615.13;;;13.43;100.00
54308;BME280;40208;39.778;2.710;2023-02-02T16:39:47;102618.16;;;13.29;100.00
54308;BME280;40208;39.778;2.710;2023-02-02T16:42:31;102612.16;;;13.20;100.00
54308;BME280;40208;39.778;2.710;2023-02-02T16:45:33;102623.13;;;13.07;100.00
54308;BME280;40208;39.778;2.710;2023-02-02T16:56:50;102630.44;;;12.65;100.00
54308;BME280;40208;39.778;2.710;2023-02-02T16:59:36;102634.09;;;12.59;100.00
54308;BME280;40208;39.778;2.710;2023-02-02T17:02:28;102635.38;;;12.43;100.00
54308;BME280;40208;39.778;2.710;2023-02-02T17:05:26;102635.56;;;12.34;100.00
54308;BME280;40208;39.778;2.710;2023-02-02T17:08:12;102640.28;;;12.22;100.00
54308;BME280;40208;39.778;2.710;2023-02-02T17:11:07;102645.91;;;12.08;100.00
54308;BME280;40208;39.778;2.710;2023-02-02T17:14:15;102641.75;;;11.95;100.00
54308;BME280;40208;39.778;2.710;2023-02-02T17:17:03;102654.53;;;11.76;100.00
54308;BME280;40208;39.778;2.710;2023-02-02T17:19:48;102656.56;;;11.62;100.00